createdAt,value
2017-10-31T00:00:04.053Z,10.65
2017-10-31T00:01:09.657Z,10.50
2017-10-31T00:02:15.576Z,10.40
2017-10-31T00:03:21.171Z,9.73
2017-10-31T00:04:27.138Z,9.90
2017-10-31T00:05:32.724Z,10.30
2017-10-31T00:06:38.342Z,10.00
2017-10-31T00:07:43.938Z,9.40
2017-10-31T00:08:49.371Z,10.07
2017-10-31T00:09:54.944Z,9.93
2017-10-31T00:11:00.399Z,9.13
2017-10-31T00:12:05.965Z,8.75
2017-10-31T00:13:11.456Z,9.25
2017-10-31T00:14:16.998Z,9.10
2017-10-31T00:15:22.549Z,8.90
2017-10-31T00:16:28.126Z,9.90
2017-10-31T00:17:33.627Z,9.82
2017-10-31T00:18:39.110Z,9.85
2017-10-31T00:19:44.656Z,9.80
2017-10-31T00:20:50.127Z,9.52
2017-10-31T00:21:55.701Z,9.40
2017-10-31T00:23:01.193Z,10.30
2017-10-31T00:24:06.693Z,9.45
2017-10-31T00:25:12.686Z,9.02
2017-10-31T00:26:18.173Z,10.90
2017-10-31T00:27:23.681Z,10.20
2017-10-31T00:28:29.130Z,9.70
2017-10-31T00:29:34.600Z,9.95
2017-10-31T00:30:40.116Z,9.90
2017-10-31T00:33:06.476Z,9.27
2017-10-31T00:34:11.995Z,9.48
2017-10-31T00:35:17.849Z,9.52
2017-10-31T00:36:23.319Z,9.10
2017-10-31T00:37:28.803Z,8.85
2017-10-31T00:38:34.323Z,9.27
2017-10-31T00:39:39.857Z,9.80
2017-10-31T00:40:45.333Z,9.57
2017-10-31T00:41:50.759Z,9.53
2017-10-31T00:42:56.215Z,9.25
2017-10-31T00:44:01.732Z,8.98
2017-10-31T00:45:07.364Z,9.35
2017-10-31T00:46:12.812Z,9.15
2017-10-31T00:47:18.316Z,9.15
2017-10-31T00:48:23.853Z,9.25
2017-10-31T00:49:29.768Z,9.55
2017-10-31T00:50:35.447Z,9.60
2017-10-31T00:51:40.894Z,9.00
2017-10-31T00:52:46.378Z,9.60
2017-10-31T00:53:51.926Z,8.95
2017-10-31T00:54:57.752Z,8.70
2017-10-31T00:56:03.288Z,9.48
2017-10-31T00:57:09.084Z,9.85
2017-10-31T00:58:14.576Z,9.90
2017-10-31T00:59:20.148Z,9.90
2017-10-31T01:00:25.671Z,9.27
2017-10-31T01:01:31.067Z,9.63
2017-10-31T01:02:36.539Z,10.32
2017-10-31T01:03:42.082Z,9.35
2017-10-31T01:04:47.578Z,9.30
2017-10-31T01:05:53.324Z,8.35
2017-10-31T01:06:58.823Z,8.63
2017-10-31T01:08:04.334Z,9.18
2017-10-31T01:09:10.116Z,8.80
2017-10-31T01:10:15.615Z,9.50
2017-10-31T01:11:21.220Z,9.25
2017-10-31T01:12:27.186Z,8.68
2017-10-31T01:13:32.668Z,8.68
2017-10-31T01:14:38.906Z,9.52
2017-10-31T01:15:44.490Z,8.82
2017-10-31T01:16:49.925Z,8.00
2017-10-31T01:17:55.402Z,8.40
2017-10-31T01:19:00.877Z,7.30
2017-10-31T01:20:06.340Z,7.85
2017-10-31T01:21:11.870Z,8.63
2017-10-31T01:22:17.333Z,43.03
2017-10-31T01:23:22.785Z,25.60
2017-10-31T01:24:28.272Z,22.15
2017-10-31T01:25:33.711Z,13.50
2017-10-31T01:26:39.350Z,10.70
2017-10-31T01:27:44.827Z,9.40
2017-10-31T01:28:50.269Z,8.13
2017-10-31T01:29:56.266Z,8.00
2017-10-31T01:31:01.838Z,7.85
2017-10-31T01:32:07.277Z,7.93
2017-10-31T01:33:12.758Z,7.72
2017-10-31T01:34:18.271Z,7.45
2017-10-31T01:35:23.672Z,7.50
2017-10-31T01:36:29.085Z,7.47
2017-10-31T01:37:34.919Z,8.10
2017-10-31T01:38:40.387Z,7.87
2017-10-31T01:39:45.825Z,7.57
2017-10-31T01:40:51.412Z,6.53
2017-10-31T01:41:56.947Z,7.53
2017-10-31T01:43:02.703Z,6.30
2017-10-31T01:44:08.274Z,6.82
2017-10-31T01:45:13.719Z,6.47
2017-10-31T01:46:19.205Z,7.40
2017-10-31T01:47:24.648Z,7.00
2017-10-31T01:48:30.099Z,6.90
2017-10-31T01:49:35.799Z,6.53
2017-10-31T01:50:41.324Z,7.00
2017-10-31T01:51:46.870Z,6.65
2017-10-31T01:52:54.328Z,7.50
2017-10-31T01:54:00.532Z,7.35
2017-10-31T01:55:06.047Z,6.90
2017-10-31T01:56:11.470Z,8.32
2017-10-31T01:57:17.050Z,7.30
2017-10-31T01:58:22.670Z,6.87
2017-10-31T02:00:49.479Z,7.90
2017-10-31T02:01:55.005Z,7.53
2017-10-31T02:03:00.555Z,7.53
2017-10-31T02:04:06.255Z,6.70
2017-10-31T02:05:11.807Z,6.78
2017-10-31T02:06:17.912Z,7.20
2017-10-31T02:07:23.428Z,7.18
2017-10-31T02:08:29.005Z,7.22
2017-10-31T02:09:35.072Z,6.65
2017-10-31T02:10:40.477Z,7.22
2017-10-31T02:11:46.007Z,7.40
2017-10-31T02:12:51.857Z,7.20
2017-10-31T02:13:57.507Z,7.37
2017-10-31T02:15:02.981Z,7.37
2017-10-31T02:16:08.423Z,6.80
2017-10-31T02:17:13.878Z,6.68
2017-10-31T02:18:19.334Z,7.32
2017-10-31T02:19:24.803Z,7.10
2017-10-31T02:20:30.881Z,7.30
2017-10-31T02:21:36.407Z,7.37
2017-10-31T02:22:41.849Z,7.68
2017-10-31T02:23:47.314Z,8.20
2017-10-31T02:24:53.209Z,7.15
2017-10-31T02:25:58.736Z,7.57
2017-10-31T02:27:04.269Z,7.70
2017-10-31T02:28:10.510Z,7.30
2017-10-31T02:29:16.064Z,7.53
2017-10-31T02:30:21.633Z,9.00
2017-10-31T02:31:27.160Z,7.78
2017-10-31T02:32:32.772Z,7.50
2017-10-31T02:33:38.197Z,7.30
2017-10-31T02:34:43.729Z,7.93
2017-10-31T02:35:49.215Z,7.40
2017-10-31T02:36:55.027Z,7.90
2017-10-31T02:38:00.662Z,7.85
2017-10-31T02:39:10.520Z,7.87
2017-10-31T02:40:15.982Z,8.10
2017-10-31T02:41:21.517Z,7.80
2017-10-31T02:42:27.061Z,6.95
2017-10-31T02:43:32.541Z,6.40
2017-10-31T02:44:38.181Z,6.78
2017-10-31T02:45:43.680Z,7.32
2017-10-31T02:46:49.117Z,6.90
2017-10-31T02:47:55.240Z,6.87
2017-10-31T02:49:00.884Z,7.05
2017-10-31T02:50:06.385Z,7.10
2017-10-31T02:51:11.837Z,6.97
2017-10-31T02:52:17.407Z,6.70
2017-10-31T02:53:22.906Z,7.30
2017-10-31T02:54:28.365Z,7.83
2017-10-31T02:55:33.874Z,6.18
2017-10-31T02:56:39.362Z,7.60
2017-10-31T02:57:44.865Z,7.10
2017-10-31T02:58:50.614Z,7.80
2017-10-31T02:59:57.067Z,6.85
2017-10-31T03:01:02.551Z,7.50
2017-10-31T03:02:07.973Z,7.32
2017-10-31T03:03:13.439Z,6.68
2017-10-31T03:04:18.936Z,7.28
2017-10-31T03:05:24.412Z,7.40
2017-10-31T03:06:29.913Z,7.72
2017-10-31T03:07:35.452Z,7.37
2017-10-31T03:08:40.934Z,7.93
2017-10-31T03:09:47.556Z,6.68
2017-10-31T03:10:53.256Z,8.13
2017-10-31T03:12:00.997Z,7.40
2017-10-31T03:13:06.468Z,7.03
2017-10-31T03:14:11.939Z,6.95
2017-10-31T03:15:17.453Z,6.70
2017-10-31T03:16:22.971Z,7.28
2017-10-31T03:17:28.447Z,8.23
2017-10-31T03:18:33.915Z,7.87
2017-10-31T03:19:39.375Z,7.50
2017-10-31T03:20:44.975Z,7.33
2017-10-31T03:21:50.462Z,7.93
2017-10-31T03:22:55.993Z,7.50
2017-10-31T03:24:01.488Z,7.93
2017-10-31T03:25:06.927Z,8.18
2017-10-31T03:26:12.352Z,7.53
2017-10-31T03:27:18.098Z,7.25
2017-10-31T03:28:23.609Z,7.22
2017-10-31T03:29:29.075Z,7.50
2017-10-31T03:30:34.555Z,6.62
2017-10-31T03:31:40.077Z,7.55
2017-10-31T03:32:45.792Z,6.95
2017-10-31T03:33:51.282Z,7.97
2017-10-31T03:34:57.264Z,7.25
2017-10-31T03:36:02.754Z,7.15
2017-10-31T03:37:09.160Z,7.12
2017-10-31T03:38:15.351Z,7.20
2017-10-31T03:39:21.264Z,6.40
2017-10-31T03:40:26.999Z,6.90
2017-10-31T03:41:32.673Z,6.95
2017-10-31T03:42:38.255Z,6.87
2017-10-31T03:43:43.727Z,6.95
2017-10-31T03:44:49.207Z,7.60
2017-10-31T03:45:54.701Z,8.48
2017-10-31T03:47:00.104Z,7.70
2017-10-31T03:48:05.616Z,6.95
2017-10-31T03:49:11.108Z,7.40
2017-10-31T03:50:16.658Z,6.53
2017-10-31T03:51:22.150Z,7.15
2017-10-31T03:52:27.562Z,7.28
2017-10-31T03:53:33.052Z,7.32
2017-10-31T03:54:38.550Z,7.20
2017-10-31T03:55:44.323Z,11.70
2017-10-31T03:56:49.810Z,13.95
2017-10-31T03:57:55.313Z,13.18
2017-10-31T03:59:01.051Z,14.13
2017-10-31T04:00:06.665Z,12.18
2017-10-31T04:01:12.592Z,11.02
2017-10-31T04:02:18.438Z,8.80
2017-10-31T04:03:23.992Z,8.13
2017-10-31T04:04:29.559Z,6.93
2017-10-31T04:05:35.046Z,7.37
2017-10-31T04:06:40.601Z,7.22
2017-10-31T04:07:46.820Z,7.50
2017-10-31T04:08:52.317Z,7.40
2017-10-31T04:09:57.819Z,7.35
2017-10-31T04:11:03.386Z,7.50
2017-10-31T04:12:08.862Z,7.43
2017-10-31T04:13:14.512Z,6.93
2017-10-31T04:14:19.984Z,6.30
2017-10-31T04:15:25.467Z,6.95
2017-10-31T04:16:30.994Z,6.90
2017-10-31T04:17:36.415Z,7.00
2017-10-31T04:18:42.138Z,7.53
2017-10-31T04:19:47.587Z,7.20
2017-10-31T04:20:53.004Z,7.90
2017-10-31T04:21:58.396Z,7.20
2017-10-31T04:23:04.507Z,7.10
2017-10-31T04:24:10.237Z,6.97
2017-10-31T04:25:15.678Z,7.60
2017-10-31T04:26:21.116Z,7.07
2017-10-31T04:27:26.612Z,7.60
2017-10-31T04:28:32.123Z,7.65
2017-10-31T04:29:37.538Z,7.13
2017-10-31T04:30:43.070Z,7.22
2017-10-31T04:31:48.453Z,8.00
2017-10-31T04:32:53.919Z,8.40
2017-10-31T04:33:59.394Z,7.60
2017-10-31T04:35:04.878Z,7.72
2017-10-31T04:36:10.297Z,8.25
2017-10-31T04:37:15.699Z,7.25
2017-10-31T04:38:21.128Z,8.10
2017-10-31T04:39:26.763Z,8.10
2017-10-31T04:40:32.448Z,7.22
2017-10-31T04:41:37.911Z,8.23
2017-10-31T04:42:43.496Z,8.00
2017-10-31T04:43:48.950Z,7.50
2017-10-31T04:44:54.658Z,8.43
2017-10-31T04:46:00.098Z,9.30
2017-10-31T04:47:05.865Z,7.75
2017-10-31T04:48:11.696Z,8.60
2017-10-31T04:49:17.299Z,8.63
2017-10-31T04:50:22.755Z,8.73
2017-10-31T04:51:28.199Z,8.30
2017-10-31T04:52:33.607Z,9.45
2017-10-31T04:53:39.019Z,8.80
2017-10-31T04:54:44.711Z,8.70
2017-10-31T04:55:50.512Z,8.93
2017-10-31T04:56:55.957Z,9.35
2017-10-31T04:58:01.414Z,9.40
2017-10-31T04:59:06.907Z,9.57
2017-10-31T05:00:12.484Z,10.27
2017-10-31T05:01:18.195Z,9.00
2017-10-31T05:02:23.709Z,8.13
2017-10-31T05:03:29.108Z,7.90
2017-10-31T05:04:34.511Z,7.30
2017-10-31T05:05:39.969Z,8.38
2017-10-31T05:06:45.388Z,8.10
2017-10-31T05:07:50.814Z,7.97
2017-10-31T05:08:56.199Z,6.97
2017-10-31T05:10:01.641Z,8.60
2017-10-31T05:11:07.072Z,7.32
2017-10-31T05:12:15.491Z,8.40
2017-10-31T05:13:20.937Z,7.57
2017-10-31T05:14:26.345Z,7.57
2017-10-31T05:15:31.719Z,7.28
2017-10-31T05:16:37.327Z,7.40
2017-10-31T05:17:43.538Z,6.78
2017-10-31T05:18:48.909Z,8.30
2017-10-31T05:19:54.294Z,7.30
2017-10-31T05:20:59.688Z,7.70
2017-10-31T05:22:05.108Z,6.95
2017-10-31T05:23:10.486Z,7.23
2017-10-31T05:24:16.046Z,6.78
2017-10-31T05:25:21.448Z,7.80
2017-10-31T05:26:26.887Z,7.10
2017-10-31T05:27:32.427Z,6.87
2017-10-31T05:28:38.147Z,7.20
2017-10-31T05:29:43.569Z,8.23
2017-10-31T05:30:48.945Z,7.30
2017-10-31T05:31:54.329Z,7.90
2017-10-31T05:32:59.833Z,7.55
2017-10-31T05:34:07.709Z,7.70
2017-10-31T05:35:13.286Z,7.12
2017-10-31T05:36:18.702Z,7.17
2017-10-31T05:37:24.198Z,7.47
2017-10-31T05:38:29.779Z,7.82
2017-10-31T05:39:35.455Z,13.30
2017-10-31T05:40:41.307Z,14.20
2017-10-31T05:41:47.052Z,11.85
2017-10-31T05:42:52.489Z,11.48
2017-10-31T05:43:58.292Z,9.30
2017-10-31T05:45:04.107Z,9.10
2017-10-31T05:46:09.772Z,8.50
2017-10-31T05:47:15.412Z,7.15
2017-10-31T05:48:20.802Z,8.18
2017-10-31T05:49:26.259Z,8.00
2017-10-31T05:50:31.760Z,8.48
2017-10-31T05:51:37.214Z,9.43
2017-10-31T05:52:42.606Z,8.10
2017-10-31T05:53:48.008Z,8.30
2017-10-31T05:54:53.459Z,8.90
2017-10-31T05:55:58.928Z,8.48
2017-10-31T05:57:04.442Z,8.80
2017-10-31T05:58:09.844Z,8.25
2017-10-31T05:59:15.260Z,7.97
2017-10-31T06:00:20.676Z,8.07
2017-10-31T06:01:26.227Z,8.02
2017-10-31T06:02:31.671Z,8.63
2017-10-31T06:03:37.447Z,10.73
2017-10-31T06:04:42.894Z,13.02
2017-10-31T06:05:48.320Z,17.70
2017-10-31T06:06:53.743Z,13.35
2017-10-31T06:07:59.317Z,11.20
2017-10-31T06:09:05.320Z,10.35
2017-10-31T06:10:11.053Z,9.90
2017-10-31T06:11:16.595Z,10.45
2017-10-31T06:12:21.999Z,10.38
2017-10-31T06:13:27.419Z,9.02
2017-10-31T06:14:32.824Z,9.90
2017-10-31T06:15:38.299Z,10.50
2017-10-31T06:16:43.705Z,11.35
2017-10-31T06:17:49.085Z,10.85
2017-10-31T06:18:54.538Z,12.43
2017-10-31T06:20:00.246Z,12.57
2017-10-31T06:21:05.619Z,11.80
2017-10-31T06:22:15.476Z,12.02
2017-10-31T06:23:25.532Z,15.07
2017-10-31T06:26:38.531Z,14.87
2017-10-31T06:29:50.114Z,14.30
2017-10-31T06:33:02.877Z,10.80
2017-10-31T06:34:08.284Z,12.55
2017-10-31T06:35:13.717Z,12.77
2017-10-31T06:36:19.149Z,13.13
2017-10-31T06:37:24.570Z,13.00
2017-10-31T06:38:30.083Z,11.45
2017-10-31T06:39:35.478Z,12.00
2017-10-31T06:40:40.919Z,11.98
2017-10-31T06:41:46.420Z,11.27
2017-10-31T06:42:52.151Z,11.10
2017-10-31T06:43:57.858Z,10.48
2017-10-31T06:45:03.312Z,10.55
2017-10-31T06:46:08.712Z,10.30
2017-10-31T06:47:14.315Z,11.67
2017-10-31T06:48:19.732Z,10.70
2017-10-31T06:49:25.152Z,11.40
2017-10-31T06:50:30.589Z,10.68
2017-10-31T06:51:36.020Z,11.25
2017-10-31T06:52:41.725Z,12.40
2017-10-31T06:53:47.170Z,12.90
2017-10-31T06:54:52.733Z,11.57
2017-10-31T06:55:58.120Z,12.63
2017-10-31T06:57:03.566Z,11.55
2017-10-31T06:58:08.963Z,11.25
2017-10-31T06:59:14.397Z,10.73
2017-10-31T07:00:20.119Z,9.68
2017-10-31T07:01:25.531Z,9.90
2017-10-31T07:02:30.979Z,10.25
2017-10-31T07:03:36.505Z,10.30
2017-10-31T07:04:41.907Z,9.82
2017-10-31T07:05:47.362Z,9.63
2017-10-31T07:06:52.774Z,9.45
2017-10-31T07:07:58.190Z,9.70
2017-10-31T07:09:03.754Z,10.65
2017-10-31T07:10:09.135Z,10.00
2017-10-31T07:11:14.528Z,10.77
2017-10-31T07:12:19.990Z,10.68
2017-10-31T07:13:25.453Z,10.93
2017-10-31T07:14:31.083Z,11.00
2017-10-31T07:15:36.502Z,13.07
2017-10-31T07:16:41.888Z,15.88
2017-10-31T07:17:47.363Z,12.48
2017-10-31T07:18:52.760Z,12.23
2017-10-31T07:19:58.203Z,11.85
2017-10-31T07:21:03.644Z,11.07
2017-10-31T07:22:09.100Z,11.88
2017-10-31T07:23:14.762Z,10.35
2017-10-31T07:24:20.196Z,9.80
2017-10-31T07:25:25.610Z,9.75
2017-10-31T07:26:31.425Z,9.82
2017-10-31T07:27:36.914Z,9.98
2017-10-31T07:28:42.326Z,9.30
2017-10-31T07:29:47.723Z,9.60
2017-10-31T07:30:53.114Z,9.93
2017-10-31T07:31:58.663Z,9.85
2017-10-31T07:33:04.182Z,9.77
2017-10-31T07:34:09.882Z,9.38
2017-10-31T07:35:15.337Z,8.20
2017-10-31T07:36:20.783Z,9.35
2017-10-31T07:37:26.212Z,9.30
2017-10-31T07:38:31.765Z,10.20
2017-10-31T07:39:37.501Z,10.70
2017-10-31T07:40:42.959Z,9.82
2017-10-31T07:41:48.438Z,14.65
2017-10-31T07:42:53.873Z,17.63
2017-10-31T07:43:59.426Z,12.55
2017-10-31T07:45:04.873Z,9.88
2017-10-31T07:46:10.331Z,9.50
2017-10-31T07:47:15.753Z,9.60
2017-10-31T07:48:21.863Z,8.70
2017-10-31T07:49:27.294Z,8.90
2017-10-31T07:50:33.074Z,9.43
2017-10-31T07:51:38.550Z,9.27
2017-10-31T07:52:43.961Z,9.48
2017-10-31T07:53:49.699Z,9.90
2017-10-31T07:54:55.128Z,9.10
2017-10-31T07:56:00.546Z,9.90
2017-10-31T07:57:05.967Z,9.20
2017-10-31T07:58:11.411Z,9.17
2017-10-31T07:59:16.849Z,9.38
2017-10-31T08:00:22.275Z,8.93
2017-10-31T08:01:28.020Z,8.73
2017-10-31T08:02:33.464Z,9.27
2017-10-31T08:03:39.012Z,10.35
2017-10-31T08:04:44.459Z,17.08
2017-10-31T08:05:50.213Z,22.27
2017-10-31T08:06:57.016Z,21.60
2017-10-31T08:08:02.573Z,17.20
2017-10-31T08:09:08.267Z,12.00
2017-10-31T08:10:13.897Z,10.40
2017-10-31T08:11:19.367Z,11.12
2017-10-31T08:12:24.821Z,10.40
2017-10-31T08:13:30.266Z,10.85
2017-10-31T08:14:35.678Z,10.95
2017-10-31T08:15:41.183Z,10.32
2017-10-31T08:16:46.631Z,10.55
2017-10-31T08:17:52.323Z,11.77
2017-10-31T08:18:57.890Z,10.70
2017-10-31T08:20:03.351Z,11.27
2017-10-31T08:21:09.063Z,10.80
2017-10-31T08:22:14.466Z,11.32
2017-10-31T08:23:19.876Z,10.48
2017-10-31T08:24:25.326Z,11.70
2017-10-31T08:25:30.802Z,11.12
2017-10-31T08:26:36.220Z,13.45
2017-10-31T08:27:42.138Z,21.27
2017-10-31T08:28:47.892Z,14.38
2017-10-31T08:29:53.353Z,11.93
2017-10-31T08:30:58.888Z,11.80
2017-10-31T08:32:04.305Z,11.65
2017-10-31T08:33:09.748Z,12.30
2017-10-31T08:34:15.465Z,11.35
2017-10-31T08:35:20.966Z,12.73
2017-10-31T08:36:26.741Z,11.35
2017-10-31T08:37:32.257Z,11.85
2017-10-31T08:38:37.680Z,12.05
2017-10-31T08:39:43.137Z,11.12
2017-10-31T08:40:48.788Z,12.48
2017-10-31T08:41:54.307Z,12.80
2017-10-31T08:42:59.870Z,12.10
2017-10-31T08:44:05.386Z,13.05
2017-10-31T08:45:10.857Z,12.23
2017-10-31T08:46:16.646Z,12.40
2017-10-31T08:47:22.039Z,11.73
2017-10-31T08:48:27.869Z,12.37
2017-10-31T08:49:33.364Z,13.00
2017-10-31T08:50:38.897Z,12.82
2017-10-31T08:51:44.347Z,11.93
2017-10-31T08:52:49.901Z,14.13
2017-10-31T08:53:55.352Z,13.50
2017-10-31T08:55:00.809Z,12.93
2017-10-31T08:56:06.310Z,12.77
2017-10-31T08:57:12.103Z,12.05
2017-10-31T08:58:17.559Z,13.13
2017-10-31T08:59:23.027Z,12.35
2017-10-31T09:00:28.478Z,12.90
2017-10-31T09:01:33.960Z,12.60
2017-10-31T09:02:39.381Z,13.10
2017-10-31T09:03:44.777Z,12.13
2017-10-31T09:04:50.163Z,11.85
2017-10-31T09:05:55.580Z,11.77
2017-10-31T09:07:02.166Z,12.30
2017-10-31T09:08:07.606Z,12.18
2017-10-31T09:09:13.072Z,12.65
2017-10-31T09:10:18.762Z,12.15
2017-10-31T09:11:24.217Z,13.13
2017-10-31T09:12:29.729Z,12.57
2017-10-31T09:13:35.461Z,12.18
2017-10-31T09:14:40.926Z,11.57
2017-10-31T09:15:46.376Z,12.20
2017-10-31T09:16:51.825Z,12.00
2017-10-31T09:17:57.286Z,12.23
2017-10-31T09:19:02.752Z,14.60
2017-10-31T09:20:08.275Z,18.00
2017-10-31T09:21:13.751Z,16.73
2017-10-31T09:22:19.158Z,13.73
2017-10-31T09:23:24.891Z,12.98
2017-10-31T09:24:30.681Z,12.87
2017-10-31T09:25:36.096Z,12.18
2017-10-31T09:26:41.569Z,13.60
2017-10-31T09:27:46.991Z,12.32
2017-10-31T09:28:52.540Z,11.65
2017-10-31T09:29:58.139Z,12.37
2017-10-31T09:31:03.627Z,11.23
2017-10-31T09:32:09.073Z,12.37
2017-10-31T09:33:14.573Z,12.80
2017-10-31T09:34:20.065Z,12.60
2017-10-31T09:35:25.970Z,11.65
2017-10-31T09:36:31.496Z,13.20
2017-10-31T09:37:37.819Z,13.18
2017-10-31T09:38:43.454Z,12.40
2017-10-31T09:39:50.734Z,12.52
2017-10-31T09:40:59.202Z,12.60
2017-10-31T09:42:07.078Z,11.77
2017-10-31T09:43:13.637Z,11.93
2017-10-31T09:44:20.985Z,11.38
2017-10-31T09:45:28.300Z,11.88
2017-10-31T09:46:34.711Z,11.90
2017-10-31T09:47:41.967Z,11.50
2017-10-31T09:48:51.071Z,12.63
2017-10-31T09:49:59.470Z,10.60
2017-10-31T09:51:06.434Z,12.10
2017-10-31T09:52:13.466Z,11.77
2017-10-31T09:53:20.317Z,12.43
2017-10-31T09:54:27.414Z,11.75
2017-10-31T09:55:35.805Z,11.10
2017-10-31T09:56:42.830Z,11.55
2017-10-31T09:57:48.720Z,11.10
2017-10-31T09:58:54.231Z,11.88
2017-10-31T10:00:01.575Z,30.55
2017-10-31T10:01:07.881Z,17.87
2017-10-31T10:02:15.814Z,14.23
2017-10-31T10:03:23.029Z,13.73
2017-10-31T10:04:30.960Z,12.10
2017-10-31T10:05:39.155Z,11.90
2017-10-31T10:06:46.153Z,11.60
2017-10-31T10:07:53.535Z,11.57
2017-10-31T10:09:00.377Z,11.25
2017-10-31T10:10:07.363Z,10.73
2017-10-31T10:11:14.414Z,11.48
2017-10-31T10:12:21.448Z,11.38
2017-10-31T10:13:28.684Z,12.05
2017-10-31T10:14:34.759Z,11.65
2017-10-31T10:15:42.060Z,11.27
2017-10-31T10:16:48.695Z,11.23
2017-10-31T10:17:55.430Z,11.60
2017-10-31T10:19:01.916Z,10.93
2017-10-31T10:20:08.949Z,11.45
2017-10-31T10:21:15.556Z,12.05
2017-10-31T10:22:21.738Z,11.25
2017-10-31T10:23:30.777Z,10.90
2017-10-31T10:24:36.862Z,12.23
2017-10-31T10:25:43.372Z,12.00
2017-10-31T10:26:49.710Z,11.53
2017-10-31T10:27:55.973Z,12.10
2017-10-31T10:29:01.728Z,11.43
2017-10-31T10:30:08.710Z,11.85
2017-10-31T10:31:15.622Z,11.90
2017-10-31T10:32:22.234Z,12.20
2017-10-31T10:33:28.844Z,11.37
2017-10-31T10:34:35.240Z,11.25
2017-10-31T10:35:42.722Z,10.98
2017-10-31T10:36:48.983Z,11.82
2017-10-31T10:37:56.010Z,12.82
2017-10-31T10:39:02.603Z,16.42
2017-10-31T10:40:09.447Z,29.65
2017-10-31T10:41:16.668Z,13.85
2017-10-31T10:42:24.625Z,11.00
2017-10-31T10:43:30.963Z,11.02
2017-10-31T10:44:38.403Z,11.40
2017-10-31T10:45:44.772Z,11.43
2017-10-31T10:46:51.359Z,9.88
2017-10-31T10:47:58.083Z,9.30
2017-10-31T10:49:04.409Z,8.13
2017-10-31T10:50:11.000Z,9.40
2017-10-31T10:51:17.235Z,8.17
2017-10-31T10:52:23.820Z,8.70
2017-10-31T10:53:30.663Z,10.03
2017-10-31T10:54:38.171Z,8.57
2017-10-31T10:55:44.588Z,8.90
2017-10-31T10:56:51.703Z,9.87
2017-10-31T10:57:58.004Z,9.43
2017-10-31T10:59:04.922Z,7.30
2017-10-31T11:00:13.939Z,7.17
2017-10-31T11:01:21.120Z,9.20
2017-10-31T11:02:30.690Z,7.70
2017-10-31T11:03:39.853Z,7.43
2017-10-31T11:04:47.218Z,6.17
2017-10-31T11:05:54.727Z,5.10
2017-10-31T11:07:01.397Z,9.70
2017-10-31T11:08:12.966Z,13.00
2017-10-31T11:09:20.246Z,92.73
2017-10-31T11:10:29.767Z,46.47
2017-10-31T11:11:40.009Z,41.60
2017-10-31T11:12:47.883Z,17.70
2017-10-31T11:13:55.421Z,21.80
2017-10-31T11:15:03.904Z,10.23
2017-10-31T11:16:11.727Z,12.30
2017-10-31T11:17:20.525Z,5.63
2017-10-31T11:18:27.958Z,5.80
2017-10-31T11:19:36.477Z,15.20
2017-10-31T11:20:44.793Z,14.67
2017-10-31T11:21:55.418Z,12.27
2017-10-31T11:23:03.162Z,4.07
2017-10-31T11:24:10.002Z,7.30
2017-10-31T11:25:16.545Z,4.70
2017-10-31T11:26:23.415Z,3.23
2017-10-31T11:27:35.287Z,2.93
2017-10-31T11:28:43.368Z,2.43
2017-10-31T11:29:50.007Z,3.07
2017-10-31T11:30:56.780Z,2.93
2017-10-31T11:32:03.985Z,1.57
2017-10-31T11:33:15.660Z,2.67
2017-10-31T11:34:22.221Z,1.90
2017-10-31T11:35:31.048Z,1.80
2017-10-31T11:36:38.445Z,1.80
2017-10-31T11:37:46.049Z,2.40
2017-10-31T11:38:52.927Z,1.77
2017-10-31T11:40:00.959Z,2.40
2017-10-31T11:41:07.805Z,2.60
2017-10-31T11:42:13.428Z,6.27
2017-10-31T11:43:21.860Z,8.00
2017-10-31T11:45:41.801Z,2.40
2017-10-31T11:46:48.349Z,2.67
2017-10-31T11:47:57.842Z,2.90
2017-10-31T11:49:06.607Z,2.30
2017-10-31T11:50:14.459Z,3.00
2017-10-31T11:51:20.960Z,2.80
2017-10-31T11:52:29.195Z,3.40
2017-10-31T11:53:36.316Z,4.10
2017-10-31T11:54:43.700Z,3.73
2017-10-31T11:55:53.788Z,3.53
2017-10-31T11:57:04.056Z,2.90
2017-10-31T11:58:11.309Z,4.23
2017-10-31T11:59:16.858Z,2.67
2017-10-31T12:00:23.289Z,2.53
2017-10-31T12:01:32.607Z,2.33
2017-10-31T12:02:40.821Z,3.43
2017-10-31T12:03:47.184Z,2.77
2017-10-31T12:04:53.717Z,2.30
2017-10-31T12:05:59.962Z,2.50
2017-10-31T12:07:06.744Z,2.03
2017-10-31T12:08:12.828Z,2.60
2017-10-31T12:09:18.784Z,2.43
2017-10-31T12:10:27.252Z,11.03
2017-10-31T12:11:33.182Z,4.47
2017-10-31T12:12:39.338Z,3.50
2017-10-31T12:13:45.566Z,2.70
2017-10-31T12:14:52.001Z,2.37
2017-10-31T12:15:59.426Z,2.80
2017-10-31T12:17:05.746Z,1.70
2017-10-31T12:18:12.284Z,2.30
2017-10-31T12:19:18.452Z,2.47
2017-10-31T12:20:24.649Z,2.60
2017-10-31T12:21:31.181Z,3.10
2017-10-31T12:22:37.416Z,2.70
2017-10-31T12:23:43.686Z,2.43
2017-10-31T12:24:49.843Z,2.23
2017-10-31T12:25:56.051Z,3.67
2017-10-31T12:27:02.330Z,2.67
2017-10-31T12:28:09.860Z,2.70
2017-10-31T12:29:16.583Z,2.40
2017-10-31T12:30:26.852Z,2.30
2017-10-31T12:31:36.135Z,2.27
2017-10-31T12:32:42.515Z,3.30
2017-10-31T12:33:48.693Z,2.93
2017-10-31T12:34:55.045Z,2.67
2017-10-31T12:36:01.050Z,3.07
2017-10-31T12:37:08.477Z,2.80
2017-10-31T12:38:14.705Z,2.50
2017-10-31T12:39:20.930Z,2.57
2017-10-31T12:40:27.819Z,3.63
2017-10-31T12:41:34.233Z,4.00
2017-10-31T12:42:41.460Z,5.90
2017-10-31T12:43:48.034Z,12.97
2017-10-31T12:44:54.250Z,4.70
2017-10-31T12:46:00.457Z,4.17
2017-10-31T12:47:06.672Z,3.03
2017-10-31T12:48:12.934Z,3.00
2017-10-31T12:49:19.186Z,3.03
2017-10-31T12:50:25.627Z,3.03
2017-10-31T12:51:32.274Z,4.97
2017-10-31T12:52:38.745Z,4.93
2017-10-31T12:53:45.106Z,3.57
2017-10-31T12:54:50.628Z,3.80
2017-10-31T12:55:56.198Z,4.50
2017-10-31T12:57:01.780Z,3.60
2017-10-31T12:58:07.482Z,2.70
2017-10-31T12:59:14.296Z,3.53
2017-10-31T13:00:20.595Z,4.83
2017-10-31T13:01:26.302Z,4.63
2017-10-31T13:02:32.257Z,3.00
2017-10-31T13:03:37.878Z,3.50
2017-10-31T13:04:43.425Z,3.10
2017-10-31T13:05:49.611Z,2.37
2017-10-31T13:06:55.098Z,3.47
2017-10-31T13:08:00.931Z,3.57
2017-10-31T13:09:06.530Z,4.43
2017-10-31T13:10:12.069Z,2.57
2017-10-31T13:11:17.552Z,3.50
2017-10-31T13:12:23.078Z,3.50
2017-10-31T13:13:28.684Z,3.23
2017-10-31T13:14:34.232Z,3.27
2017-10-31T13:15:39.743Z,3.00
2017-10-31T13:16:45.281Z,3.37
2017-10-31T13:17:50.904Z,4.50
2017-10-31T13:18:57.289Z,2.40
2017-10-31T13:20:02.974Z,3.10
2017-10-31T13:21:08.512Z,2.23
2017-10-31T13:22:14.071Z,3.70
2017-10-31T13:23:20.007Z,2.53
2017-10-31T13:24:25.598Z,3.00
2017-10-31T13:25:31.124Z,3.97
2017-10-31T13:26:37.562Z,1.93
2017-10-31T13:27:43.980Z,2.17
2017-10-31T13:28:50.506Z,4.00
2017-10-31T13:29:56.989Z,3.17
2017-10-31T13:31:05.197Z,3.23
2017-10-31T13:32:11.736Z,4.13
2017-10-31T13:33:24.454Z,2.50
2017-10-31T13:34:34.585Z,3.13
2017-10-31T13:35:42.189Z,3.93
2017-10-31T13:36:49.029Z,24.50
2017-10-31T13:37:55.554Z,10.57
2017-10-31T13:39:06.184Z,4.30
2017-10-31T13:40:12.921Z,3.83
2017-10-31T13:41:20.653Z,3.37
2017-10-31T13:42:27.450Z,3.17
2017-10-31T13:43:34.555Z,2.97
2017-10-31T13:44:41.806Z,3.70
2017-10-31T13:45:47.274Z,2.60
2017-10-31T13:46:53.674Z,4.37
2017-10-31T13:47:59.895Z,5.03
2017-10-31T13:49:06.355Z,2.90
2017-10-31T13:50:12.718Z,3.27
2017-10-31T13:51:19.154Z,3.00
2017-10-31T13:52:25.466Z,3.00
2017-10-31T13:53:31.029Z,4.00
2017-10-31T13:54:36.584Z,3.63
2017-10-31T13:55:42.106Z,3.50
2017-10-31T13:56:47.638Z,3.50
2017-10-31T13:57:53.128Z,3.30
2017-10-31T13:58:58.742Z,4.03
2017-10-31T14:00:05.290Z,3.53
2017-10-31T14:01:10.910Z,3.40
2017-10-31T14:02:17.710Z,3.40
2017-10-31T14:03:24.205Z,3.00
2017-10-31T14:04:30.428Z,3.20
2017-10-31T14:05:36.677Z,2.67
2017-10-31T14:06:43.039Z,3.50
2017-10-31T14:07:49.534Z,3.63
2017-10-31T14:08:55.446Z,3.37
2017-10-31T14:10:01.985Z,3.57
2017-10-31T14:11:08.713Z,4.30
2017-10-31T14:12:15.414Z,12.50
2017-10-31T14:13:20.980Z,11.70
2017-10-31T14:14:26.474Z,7.90
2017-10-31T14:15:32.184Z,4.57
2017-10-31T14:16:37.672Z,4.00
2017-10-31T14:17:43.129Z,4.80
2017-10-31T14:18:49.273Z,3.20
2017-10-31T14:19:55.427Z,4.97
2017-10-31T14:21:01.869Z,4.40
2017-10-31T14:22:07.741Z,3.50
2017-10-31T14:23:13.375Z,4.43
2017-10-31T14:24:18.780Z,3.87
2017-10-31T14:25:24.530Z,3.67
2017-10-31T14:26:30.060Z,3.87
2017-10-31T14:27:36.049Z,10.00
2017-10-31T14:28:41.585Z,4.90
2017-10-31T14:29:47.107Z,4.00
2017-10-31T14:30:52.739Z,3.57
2017-10-31T14:31:58.314Z,4.30
2017-10-31T14:33:03.952Z,4.43
2017-10-31T14:34:09.422Z,4.30
2017-10-31T14:35:14.947Z,4.97
2017-10-31T14:36:20.527Z,4.80
2017-10-31T14:37:26.122Z,3.30
2017-10-31T14:38:32.012Z,4.40